Saint Monans, United Kingdom

1:58 PM BST on April 21, 2015 (GMT +0100)
IFIFESTM2 | | Change Station
CLOSE
Current Station
Personal Weather Station
Location: St Monans, FIFE
Elevation: 59 ft
Nearby Weather Stations

Elev 59 ft 56.20 °N, 2.77 °W | Updated 13 minutes ago

Clear
Clear
65.1 °F
Feels Like 65.1 °F
N
6.3
Wind Variable Wind from South
Gusts 6.3 mph

Today
High -- | Low -- °F
--% Chance of Precip.
Yesterday
High -- | Low -- °F
Precip. -- in
5:51 AM 8:30 PM
Waxing Crescent, 10% visible
Pressure 30.60 in
Visibility -9999.0 miles
Clouds
Dew Point 48 °F
Humidity 54%
Rainfall 0.00 in
Snow Depth Not available.
UV Not available.
Pollen Not available.
Air Quality Not available.
Flu Activity Not available.
METAR EGPH 211250Z 25006KT 220V340 CAVOK 16/06 Q1036

More Conditions Fewer Conditions

Pressure 30.60 in
Visibility -9999.0 miles
Clouds
Dew Point 48 °F
Humidity 54%
Rainfall 0.00 in
Snow Depth Not available.
UV Not available.
Pollen Not available.
Air Quality Not available.
Flu Activity Not available.
METAR EGPH 211250Z 25006KT 220V340 CAVOK 16/06 Q1036

More Conditions Fewer Conditions

10-Day Weather Forecast

Almanac

Astronomy

Apr. 21, 2015 Rise Set
Actual Time
Civil Twilight
Nautical Twilight
Astronomical Twilight
Moon
Length of Visible Light
Length of Day
Tomorrow will be .
, % of the Moon is Illuminated

Today's Extremes

Country Highs Country Lows

Community

WunderPhotos

Upload Photos

1,815,361 photos uploaded!

WunderBlogs® & News

Nearby

Air Quality

  Air Quality AQ Index Pollutant
Not available.

Snow Depth

Station Depth Elevation

Earthquake Activity

City Distance Mag. Time & Date
Minimum magnitude displayed is 2.5.

Coastal Water Temperatures

Place Temperature

Stations

Nearby Weather Stations

Station Location Temp. Windchill Dew Point Humidity Wind Precip. Elev Updated Type